createdAt,value
2018-07-24T00:05:00.195Z,17.90
2018-07-24T00:10:05.896Z,17.70
2018-07-24T00:15:10.635Z,17.30
2018-07-24T00:20:15.461Z,17.20
2018-07-24T00:25:20.090Z,17.10
2018-07-24T00:30:24.690Z,17.20
2018-07-24T00:35:29.516Z,17.30
2018-07-24T00:40:34.318Z,17.30
2018-07-24T00:45:38.962Z,17.20
2018-07-24T00:50:43.883Z,17.10
2018-07-24T00:55:48.588Z,17.00
2018-07-24T01:00:53.292Z,17.00
2018-07-24T01:05:57.997Z,16.90
2018-07-24T01:11:03.302Z,16.80
2018-07-24T01:16:08.106Z,16.70
2018-07-24T01:21:13.055Z,16.70
2018-07-24T01:26:17.924Z,16.70
2018-07-24T01:31:22.766Z,16.70
2018-07-24T01:36:27.407Z,16.80
2018-07-24T01:41:32.028Z,16.70
2018-07-24T01:46:36.894Z,16.60
2018-07-24T01:51:41.623Z,16.40
2018-07-24T01:56:46.352Z,16.30
2018-07-24T02:01:51.892Z,16.20
2018-07-24T02:06:56.805Z,16.20
2018-07-24T02:12:01.474Z,16.20
2018-07-24T02:17:06.222Z,16.20
2018-07-24T02:22:11.541Z,16.30
2018-07-24T02:27:16.321Z,16.50
2018-07-24T02:32:21.190Z,16.70
2018-07-24T02:37:25.925Z,16.80
2018-07-24T02:42:30.919Z,16.90
2018-07-24T02:47:36.138Z,16.90
2018-07-24T02:52:40.870Z,16.90
2018-07-24T02:57:46.341Z,16.90
2018-07-24T03:02:51.271Z,16.90
2018-07-24T03:07:56.312Z,17.00
2018-07-24T03:13:01.104Z,17.00
2018-07-24T03:18:06.013Z,17.00
2018-07-24T03:23:10.853Z,16.90
2018-07-24T03:28:15.387Z,16.90
2018-07-24T03:33:20.017Z,16.80
2018-07-24T03:38:24.577Z,16.80
2018-07-24T03:43:29.438Z,16.80
2018-07-24T03:48:34.037Z,16.80
2018-07-24T03:53:38.794Z,16.80
2018-07-24T03:58:43.630Z,16.90
2018-07-24T04:03:48.337Z,16.90
2018-07-24T04:08:53.192Z,16.90
2018-07-24T04:13:57.853Z,16.90
2018-07-24T04:19:02.552Z,17.00
2018-07-24T04:24:07.410Z,17.10
2018-07-24T04:29:12.164Z,17.10
2018-07-24T04:34:17.401Z,17.00
2018-07-24T04:39:21.978Z,16.90
2018-07-24T04:44:26.944Z,17.00
2018-07-24T04:49:31.477Z,17.00
2018-07-24T04:54:36.420Z,17.10
2018-07-24T04:59:41.056Z,17.20
2018-07-24T05:04:45.850Z,17.30
2018-07-24T05:09:50.679Z,17.30
2018-07-24T05:14:55.440Z,17.40
2018-07-24T05:20:00.127Z,17.50
2018-07-24T05:25:05.237Z,17.70
2018-07-24T05:30:10.067Z,17.90
2018-07-24T05:35:14.713Z,18.20
2018-07-24T05:40:19.479Z,18.50
2018-07-24T05:45:24.209Z,18.90
2018-07-24T05:50:28.920Z,19.10
2018-07-24T05:55:33.913Z,19.40
2018-07-24T06:00:38.710Z,19.70
2018-07-24T06:05:43.362Z,19.80
2018-07-24T06:10:48.120Z,20.10
2018-07-24T06:15:53.653Z,20.20
2018-07-24T06:20:58.330Z,20.40
2018-07-24T06:26:08.742Z,20.40
2018-07-24T06:31:13.313Z,20.50
2018-07-24T06:36:17.943Z,20.90
2018-07-24T06:41:22.696Z,21.10
2018-07-24T06:46:27.316Z,21.30
2018-07-24T06:51:32.524Z,21.50
2018-07-24T06:56:37.605Z,21.60
2018-07-24T07:01:42.347Z,21.60
2018-07-24T07:06:46.855Z,21.70
2018-07-24T07:11:51.622Z,21.90
2018-07-24T07:16:56.291Z,22.00
2018-07-24T07:22:00.902Z,22.30
2018-07-24T07:27:05.687Z,22.60
2018-07-24T07:32:10.712Z,23.00
2018-07-24T07:37:15.428Z,23.10
2018-07-24T07:47:24.024Z,23.20
2018-07-24T07:52:28.602Z,23.50
2018-07-24T07:57:33.210Z,23.70
2018-07-24T08:02:37.923Z,24.00
2018-07-24T08:07:43.121Z,24.40
2018-07-24T08:12:47.732Z,24.40
2018-07-24T08:17:52.432Z,24.20
2018-07-24T08:22:57.267Z,23.90
2018-07-24T08:28:02.088Z,24.40
2018-07-24T08:33:06.856Z,24.80
2018-07-24T08:38:11.595Z,24.40
2018-07-24T08:43:16.234Z,24.00
2018-07-24T08:48:21.164Z,24.10
2018-07-24T08:53:26.177Z,24.50
2018-07-24T08:58:30.562Z,24.80
2018-07-24T09:03:35.501Z,24.60
2018-07-24T09:08:39.944Z,24.80
2018-07-24T09:13:44.463Z,25.20
2018-07-24T09:18:49.188Z,25.40
2018-07-24T09:23:54.026Z,25.70
2018-07-24T09:28:59.227Z,25.50
2018-07-24T09:34:04.038Z,25.80
2018-07-24T09:39:10.216Z,26.50
2018-07-24T09:44:14.783Z,26.00
2018-07-24T09:49:19.541Z,26.10
2018-07-24T09:54:24.489Z,26.20
2018-07-24T09:59:29.442Z,25.70
2018-07-24T10:04:34.184Z,25.60
2018-07-24T10:09:38.852Z,25.90
2018-07-24T10:14:43.476Z,25.30
2018-07-24T10:19:48.277Z,26.00
2018-07-24T10:24:53.119Z,25.90
2018-07-24T10:29:58.066Z,26.30
2018-07-24T10:35:02.778Z,26.30
2018-07-24T10:40:07.501Z,26.70
2018-07-24T10:45:12.142Z,26.80
2018-07-24T10:50:16.874Z,26.90
2018-07-24T10:55:22.185Z,26.90
2018-07-24T11:00:27.086Z,27.10
2018-07-24T11:05:31.798Z,27.00
2018-07-24T11:10:36.757Z,27.10
2018-07-24T11:15:41.505Z,27.30
2018-07-24T11:20:46.239Z,27.80
2018-07-24T11:25:51.027Z,28.20
2018-07-24T11:30:55.912Z,28.10
2018-07-24T11:36:00.756Z,28.10
2018-07-24T11:41:05.279Z,28.40
2018-07-24T11:46:10.026Z,28.60
2018-07-24T11:51:16.178Z,29.10
2018-07-24T11:56:21.323Z,30.20
2018-07-24T12:01:26.365Z,31.10
2018-07-24T12:06:31.011Z,31.80
2018-07-24T12:11:36.360Z,32.00
2018-07-24T12:16:41.062Z,32.80
2018-07-24T12:21:46.410Z,33.00
2018-07-24T12:26:51.159Z,33.40
2018-07-24T12:31:56.460Z,34.10
2018-07-24T12:42:05.723Z,34.60
2018-07-24T12:47:10.526Z,34.50
2018-07-24T12:52:15.503Z,35.30
2018-07-24T12:57:20.535Z,35.80
2018-07-24T13:02:25.318Z,35.70
2018-07-24T13:07:30.720Z,36.30
2018-07-24T13:12:35.548Z,37.10
2018-07-24T13:17:40.405Z,38.20
2018-07-24T13:22:45.111Z,38.00
2018-07-24T13:27:50.112Z,36.60
2018-07-24T13:32:54.915Z,35.80
2018-07-24T13:37:59.733Z,35.60
2018-07-24T13:43:04.799Z,36.10
2018-07-24T13:48:10.055Z,35.60
2018-07-24T13:53:15.571Z,35.70
2018-07-24T13:58:20.401Z,36.00
2018-07-24T14:03:25.215Z,37.30
2018-07-24T14:08:30.145Z,36.30
2018-07-24T14:13:35.292Z,35.60
2018-07-24T14:18:39.774Z,34.90
2018-07-24T14:23:44.496Z,36.60
2018-07-24T14:28:49.759Z,36.40
2018-07-24T14:33:55.353Z,36.20
2018-07-24T14:38:59.929Z,37.00
2018-07-24T14:44:04.713Z,36.90
2018-07-24T14:49:09.397Z,36.70
2018-07-24T14:54:14.940Z,37.60
2018-07-24T14:59:19.768Z,37.00
2018-07-24T15:04:25.014Z,37.60
2018-07-24T15:09:30.099Z,37.30
2018-07-24T15:14:34.784Z,37.30
2018-07-24T15:24:43.816Z,36.90
2018-07-24T15:29:49.904Z,36.50
2018-07-24T15:34:54.712Z,37.00
2018-07-24T15:39:59.440Z,37.50
2018-07-24T15:45:04.146Z,37.40
2018-07-24T15:50:08.909Z,38.50
2018-07-24T15:55:13.504Z,38.10
2018-07-24T16:00:18.208Z,39.40
2018-07-24T16:05:22.903Z,39.20
2018-07-24T16:10:27.679Z,39.30
2018-07-24T16:15:32.322Z,36.70
2018-07-24T16:20:37.206Z,36.80
2018-07-24T16:25:41.813Z,36.40
2018-07-24T16:30:47.115Z,36.60
2018-07-24T16:35:51.807Z,35.90
2018-07-24T16:40:56.577Z,35.40
2018-07-24T16:46:01.476Z,36.70
2018-07-24T16:51:06.063Z,36.00
2018-07-24T16:56:10.683Z,35.70
2018-07-24T17:01:15.448Z,34.40
2018-07-24T17:11:25.510Z,31.40
2018-07-24T17:16:30.165Z,30.70
2018-07-24T17:21:34.988Z,30.60
2018-07-24T17:26:40.569Z,30.70
2018-07-24T17:31:45.261Z,30.60
2018-07-24T17:36:50.116Z,30.40
2018-07-24T17:41:54.933Z,30.30
2018-07-24T17:46:59.679Z,30.00
2018-07-24T17:52:04.276Z,29.90
2018-07-24T17:57:08.974Z,29.80
2018-07-24T18:02:13.874Z,29.40
2018-07-24T18:07:19.021Z,29.20
2018-07-24T18:12:24.265Z,29.10
2018-07-24T18:17:29.110Z,28.80
2018-07-24T18:22:33.988Z,28.50
2018-07-24T18:27:38.703Z,28.30
2018-07-24T18:32:43.646Z,28.10
2018-07-24T18:37:49.128Z,27.90
2018-07-24T18:42:53.696Z,27.70
2018-07-24T18:47:58.561Z,27.50
2018-07-24T18:53:03.487Z,27.20
2018-07-24T18:58:08.211Z,26.90
2018-07-24T19:03:12.933Z,26.70
2018-07-24T19:08:18.054Z,26.50
2018-07-24T19:13:22.883Z,26.30
2018-07-24T19:18:27.770Z,26.10
2018-07-24T19:23:32.609Z,26.10
2018-07-24T19:28:38.700Z,25.90
2018-07-24T19:33:43.864Z,25.70
2018-07-24T19:38:48.550Z,25.60
2018-07-24T19:43:53.329Z,25.50
2018-07-24T19:48:58.284Z,25.40
2018-07-24T19:59:08.573Z,25.30
2018-07-24T20:04:13.175Z,25.20
2018-07-24T20:09:18.527Z,25.10
2018-07-24T20:14:23.847Z,25.00
2018-07-24T20:19:29.286Z,24.90
2018-07-24T20:24:34.047Z,24.90
2018-07-24T20:29:38.997Z,24.70
2018-07-24T20:34:43.846Z,24.60
2018-07-24T20:39:48.401Z,24.60
2018-07-24T20:44:53.327Z,24.50
2018-07-24T20:49:58.123Z,24.40
2018-07-24T20:55:02.864Z,24.40
2018-07-24T21:00:07.704Z,24.40
2018-07-24T21:05:12.555Z,24.20
2018-07-24T21:10:18.321Z,24.10
2018-07-24T21:15:23.087Z,24.10
2018-07-24T21:20:28.202Z,24.10
2018-07-24T21:25:33.896Z,24.00
2018-07-24T21:30:38.733Z,24.00
2018-07-24T21:35:43.422Z,23.90
2018-07-24T21:40:48.024Z,23.90
2018-07-24T21:45:52.992Z,23.70
2018-07-24T21:50:57.693Z,23.70
2018-07-24T21:56:02.260Z,23.40
2018-07-24T22:01:12.594Z,23.30
2018-07-24T22:06:17.484Z,23.10
2018-07-24T22:11:22.324Z,23.00
2018-07-24T22:16:27.191Z,22.90
2018-07-24T22:21:31.782Z,22.80
2018-07-24T22:26:36.500Z,22.80
2018-07-24T22:31:41.982Z,22.80
2018-07-24T22:36:47.397Z,22.60
2018-07-24T22:41:52.481Z,22.40
2018-07-24T22:46:57.903Z,22.30
2018-07-24T22:52:02.647Z,21.80
2018-07-24T22:57:06.880Z,21.80
2018-07-24T23:02:11.625Z,21.70
2018-07-24T23:07:16.238Z,21.70
2018-07-24T23:12:20.979Z,21.40
2018-07-24T23:17:25.700Z,21.20
2018-07-24T23:22:30.402Z,21.10
2018-07-24T23:27:35.108Z,20.90
2018-07-24T23:32:40.644Z,20.70
2018-07-24T23:37:45.314Z,20.50
2018-07-24T23:42:50.207Z,20.50
2018-07-24T23:47:55.810Z,20.60
2018-07-24T23:53:00.227Z,20.40
2018-07-24T23:58:06.193Z,20.40
